sensor_id;sensor_type;location;lat;lon;timestamp;temperature;humidity
32660;DHT22;19064;47.912;12.308;2022-12-07T00:01:29;2.90;99.90
32660;DHT22;19064;47.912;12.308;2022-12-07T00:03:59;2.90;99.90
32660;DHT22;19064;47.912;12.308;2022-12-07T00:06:32;2.90;99.90
32660;DHT22;19064;47.912;12.308;2022-12-07T00:09:02;2.90;99.90
32660;DHT22;19064;47.912;12.308;2022-12-07T00:11:30;2.90;99.90
32660;DHT22;19064;47.912;12.308;2022-12-07T00:14:00;2.90;99.90
32660;DHT22;19064;47.912;12.308;2022-12-07T00:16:31;2.90;99.90
32660;DHT22;19064;47.912;12.308;2022-12-07T00:19:00;2.90;99.90
32660;DHT22;19064;47.912;12.308;2022-12-07T00:21:30;2.90;99.90
32660;DHT22;19064;47.912;12.308;2022-12-07T00:23:58;2.90;99.90
32660;DHT22;19064;47.912;12.308;2022-12-07T00:26:28;2.90;99.90
32660;DHT22;19064;47.912;12.308;2022-12-07T00:28:58;2.90;99.90
32660;DHT22;19064;47.912;12.308;2022-12-07T00:31:29;2.90;99.90
32660;DHT22;19064;47.912;12.308;2022-12-07T00:33:57;2.90;99.90
32660;DHT22;19064;47.912;12.308;2022-12-07T00:36:25;2.90;99.90
32660;DHT22;19064;47.912;12.308;2022-12-07T00:38:54;2.90;99.90
32660;DHT22;19064;47.912;12.308;2022-12-07T00:41:23;2.90;99.90
32660;DHT22;19064;47.912;12.308;2022-12-07T00:43:53;2.90;99.90
32660;DHT22;19064;47.912;12.308;2022-12-07T00:46:22;2.90;99.90
32660;DHT22;19064;47.912;12.308;2022-12-07T00:48:51;2.90;99.90
32660;DHT22;19064;47.912;12.308;2022-12-07T00:51:21;2.90;99.90
32660;DHT22;19064;47.912;12.308;2022-12-07T00:53:50;2.90;99.90
32660;DHT22;19064;47.912;12.308;2022-12-07T00:56:21;2.90;99.90
32660;DHT22;19064;47.912;12.308;2022-12-07T00:58:55;3.00;99.90
32660;DHT22;19064;47.912;12.308;2022-12-07T01:01:23;3.00;99.90
32660;DHT22;19064;47.912;12.308;2022-12-07T01:03:52;3.00;99.90
32660;DHT22;19064;47.912;12.308;2022-12-07T01:06:21;2.90;99.90
32660;DHT22;19064;47.912;12.308;2022-12-07T01:08:50;2.90;99.90
32660;DHT22;19064;47.912;12.308;2022-12-07T01:11:20;2.90;99.90
32660;DHT22;19064;47.912;12.308;2022-12-07T01:13:49;2.90;99.90
32660;DHT22;19064;47.912;12.308;2022-12-07T01:16:20;2.80;99.90
32660;DHT22;19064;47.912;12.308;2022-12-07T01:18:50;2.90;99.90
32660;DHT22;19064;47.912;12.308;2022-12-07T01:21:20;2.90;99.90
32660;DHT22;19064;47.912;12.308;2022-12-07T01:23:50;2.90;99.90
32660;DHT22;19064;47.912;12.308;2022-12-07T01:26:20;2.80;99.90
32660;DHT22;19064;47.912;12.308;2022-12-07T01:28:49;2.90;99.90
32660;DHT22;19064;47.912;12.308;2022-12-07T01:31:20;2.90;99.90
32660;DHT22;19064;47.912;12.308;2022-12-07T01:33:51;2.90;99.90
32660;DHT22;19064;47.912;12.308;2022-12-07T01:36:21;2.90;99.90
32660;DHT22;19064;47.912;12.308;2022-12-07T01:38:50;2.90;99.90
32660;DHT22;19064;47.912;12.308;2022-12-07T01:41:20;2.80;99.90
32660;DHT22;19064;47.912;12.308;2022-12-07T01:44:08;2.90;99.90
32660;DHT22;19064;47.912;12.308;2022-12-07T01:46:40;2.90;99.90
32660;DHT22;19064;47.912;12.308;2022-12-07T01:49:10;2.80;99.90
32660;DHT22;19064;47.912;12.308;2022-12-07T01:51:41;2.80;99.90
32660;DHT22;19064;47.912;12.308;2022-12-07T01:54:11;2.80;99.90
32660;DHT22;19064;47.912;12.308;2022-12-07T01:56:44;2.80;99.90
32660;DHT22;19064;47.912;12.308;2022-12-07T01:59:15;2.80;99.90
32660;DHT22;19064;47.912;12.308;2022-12-07T02:01:45;2.80;99.90
32660;DHT22;19064;47.912;12.308;2022-12-07T02:04:14;2.70;99.90
32660;DHT22;19064;47.912;12.308;2022-12-07T02:06:43;2.70;99.90
32660;DHT22;19064;47.912;12.308;2022-12-07T02:09:12;2.70;99.90
32660;DHT22;19064;47.912;12.308;2022-12-07T02:11:39;2.80;99.90
32660;DHT22;19064;47.912;12.308;2022-12-07T02:14:07;2.70;99.90
32660;DHT22;19064;47.912;12.308;2022-12-07T02:16:41;2.60;99.90
32660;DHT22;19064;47.912;12.308;2022-12-07T02:19:31;2.70;99.90
32660;DHT22;19064;47.912;12.308;2022-12-07T02:22:11;2.70;99.90
32660;DHT22;19064;47.912;12.308;2022-12-07T02:24:52;2.70;99.90
32660;DHT22;19064;47.912;12.308;2022-12-07T02:27:41;2.70;99.90
32660;DHT22;19064;47.912;12.308;2022-12-07T02:30:15;2.70;99.90
32660;DHT22;19064;47.912;12.308;2022-12-07T02:32:51;2.70;99.90
32660;DHT22;19064;47.912;12.308;2022-12-07T02:35:25;2.80;99.90
32660;DHT22;19064;47.912;12.308;2022-12-07T02:38:00;2.80;99.90
32660;DHT22;19064;47.912;12.308;2022-12-07T02:40:34;2.70;99.90
32660;DHT22;19064;47.912;12.308;2022-12-07T02:43:08;2.70;99.90
32660;DHT22;19064;47.912;12.308;2022-12-07T02:45:41;2.70;99.90
32660;DHT22;19064;47.912;12.308;2022-12-07T02:48:12;2.70;99.90
32660;DHT22;19064;47.912;12.308;2022-12-07T02:50:44;2.70;99.90
32660;DHT22;19064;47.912;12.308;2022-12-07T02:53:28;2.60;99.90
32660;DHT22;19064;47.912;12.308;2022-12-07T02:55:56;2.70;99.90
32660;DHT22;19064;47.912;12.308;2022-12-07T02:58:32;2.70;99.90
32660;DHT22;19064;47.912;12.308;2022-12-07T03:01:12;2.70;99.90
32660;DHT22;19064;47.912;12.308;2022-12-07T03:03:48;2.70;99.90
32660;DHT22;19064;47.912;12.308;2022-12-07T03:06:22;2.60;99.90
32660;DHT22;19064;47.912;12.308;2022-12-07T03:09:04;2.60;99.90
32660;DHT22;19064;47.912;12.308;2022-12-07T03:11:43;2.70;99.90
32660;DHT22;19064;47.912;12.308;2022-12-07T03:14:17;2.70;99.90
32660;DHT22;19064;47.912;12.308;2022-12-07T03:16:49;2.70;99.90
32660;DHT22;19064;47.912;12.308;2022-12-07T03:19:21;2.70;99.90
32660;DHT22;19064;47.912;12.308;2022-12-07T03:21:54;2.70;99.90
32660;DHT22;19064;47.912;12.308;2022-12-07T03:24:27;2.70;99.90
32660;DHT22;19064;47.912;12.308;2022-12-07T03:27:01;2.60;99.90
32660;DHT22;19064;47.912;12.308;2022-12-07T03:29:33;2.60;99.90
32660;DHT22;19064;47.912;12.308;2022-12-07T03:32:10;2.60;99.90
32660;DHT22;19064;47.912;12.308;2022-12-07T03:34:46;2.60;99.90
32660;DHT22;19064;47.912;12.308;2022-12-07T03:37:18;2.60;99.90
32660;DHT22;19064;47.912;12.308;2022-12-07T03:39:57;2.60;99.90
32660;DHT22;19064;47.912;12.308;2022-12-07T03:42:28;2.60;99.90
32660;DHT22;19064;47.912;12.308;2022-12-07T03:44:56;2.60;99.90
32660;DHT22;19064;47.912;12.308;2022-12-07T03:47:29;2.70;99.90
32660;DHT22;19064;47.912;12.308;2022-12-07T03:50:04;2.60;99.90
32660;DHT22;19064;47.912;12.308;2022-12-07T03:52:39;2.60;99.90
32660;DHT22;19064;47.912;12.308;2022-12-07T03:55:11;2.60;99.90
32660;DHT22;19064;47.912;12.308;2022-12-07T03:57:42;2.70;99.90
32660;DHT22;19064;47.912;12.308;2022-12-07T04:00:11;2.60;99.90
32660;DHT22;19064;47.912;12.308;2022-12-07T04:02:41;2.70;99.90
32660;DHT22;19064;47.912;12.308;2022-12-07T04:05:10;2.70;99.90
32660;DHT22;19064;47.912;12.308;2022-12-07T04:07:39;2.70;99.90
32660;DHT22;19064;47.912;12.308;2022-12-07T04:10:08;2.70;99.90
32660;DHT22;19064;47.912;12.308;2022-12-07T04:12:35;2.60;99.90
32660;DHT22;19064;47.912;12.308;2022-12-07T04:15:04;2.60;99.90
32660;DHT22;19064;47.912;12.308;2022-12-07T04:17:32;2.70;99.90
32660;DHT22;19064;47.912;12.308;2022-12-07T04:20:01;2.60;99.90
32660;DHT22;19064;47.912;12.308;2022-12-07T04:22:31;2.70;99.90
32660;DHT22;19064;47.912;12.308;2022-12-07T04:24:59;2.60;99.90
32660;DHT22;19064;47.912;12.308;2022-12-07T04:27:27;2.60;99.90
32660;DHT22;19064;47.912;12.308;2022-12-07T04:29:55;2.60;99.90
32660;DHT22;19064;47.912;12.308;2022-12-07T04:32:23;2.60;99.90
32660;DHT22;19064;47.912;12.308;2022-12-07T04:34:51;2.60;99.90
32660;DHT22;19064;47.912;12.308;2022-12-07T04:37:21;2.60;99.90
32660;DHT22;19064;47.912;12.308;2022-12-07T04:39:49;2.60;99.90
32660;DHT22;19064;47.912;12.308;2022-12-07T04:42:17;2.60;99.90
32660;DHT22;19064;47.912;12.308;2022-12-07T04:44:44;2.60;99.90
32660;DHT22;19064;47.912;12.308;2022-12-07T04:47:12;2.60;99.90
32660;DHT22;19064;47.912;12.308;2022-12-07T04:49:40;2.60;99.90
32660;DHT22;19064;47.912;12.308;2022-12-07T04:52:08;2.60;99.90
32660;DHT22;19064;47.912;12.308;2022-12-07T04:54:38;2.50;99.90
32660;DHT22;19064;47.912;12.308;2022-12-07T04:57:05;2.50;99.90
32660;DHT22;19064;47.912;12.308;2022-12-07T04:59:33;2.50;99.90
32660;DHT22;19064;47.912;12.308;2022-12-07T05:02:01;2.60;99.90
32660;DHT22;19064;47.912;12.308;2022-12-07T05:04:30;2.50;99.90
32660;DHT22;19064;47.912;12.308;2022-12-07T05:06:58;2.60;99.90
32660;DHT22;19064;47.912;12.308;2022-12-07T05:09:24;2.60;99.90
32660;DHT22;19064;47.912;12.308;2022-12-07T05:11:55;2.60;99.90
32660;DHT22;19064;47.912;12.308;2022-12-07T05:14:23;2.70;99.90
32660;DHT22;19064;47.912;12.308;2022-12-07T05:16:51;2.70;99.90
32660;DHT22;19064;47.912;12.308;2022-12-07T05:19:20;2.70;99.90
32660;DHT22;19064;47.912;12.308;2022-12-07T05:21:48;2.60;99.90
32660;DHT22;19064;47.912;12.308;2022-12-07T05:24:16;2.70;99.90
32660;DHT22;19064;47.912;12.308;2022-12-07T05:26:44;2.60;99.90
32660;DHT22;19064;47.912;12.308;2022-12-07T05:29:15;2.60;99.90
32660;DHT22;19064;47.912;12.308;2022-12-07T05:31:44;2.60;99.90
32660;DHT22;19064;47.912;12.308;2022-12-07T05:34:13;2.60;99.90
32660;DHT22;19064;47.912;12.308;2022-12-07T05:36:41;2.50;99.90
32660;DHT22;19064;47.912;12.308;2022-12-07T05:39:09;2.60;99.90
32660;DHT22;19064;47.912;12.308;2022-12-07T05:41:37;2.60;99.90
32660;DHT22;19064;47.912;12.308;2022-12-07T05:44:23;2.60;99.90
32660;DHT22;19064;47.912;12.308;2022-12-07T05:46:51;2.60;99.90
32660;DHT22;19064;47.912;12.308;2022-12-07T05:49:19;2.60;99.90
32660;DHT22;19064;47.912;12.308;2022-12-07T05:51:47;2.60;99.90
32660;DHT22;19064;47.912;12.308;2022-12-07T05:54:14;2.60;99.90
32660;DHT22;19064;47.912;12.308;2022-12-07T05:56:42;2.60;99.90
32660;DHT22;19064;47.912;12.308;2022-12-07T05:59:10;2.60;99.90
32660;DHT22;19064;47.912;12.308;2022-12-07T06:01:54;2.60;99.90
32660;DHT22;19064;47.912;12.308;2022-12-07T06:04:23;2.50;99.90
32660;DHT22;19064;47.912;12.308;2022-12-07T06:06:51;2.60;99.90
32660;DHT22;19064;47.912;12.308;2022-12-07T06:09:20;2.50;99.90
32660;DHT22;19064;47.912;12.308;2022-12-07T06:11:49;2.60;99.90
32660;DHT22;19064;47.912;12.308;2022-12-07T06:14:33;2.70;99.90
32660;DHT22;19064;47.912;12.308;2022-12-07T06:17:03;2.70;99.90
32660;DHT22;19064;47.912;12.308;2022-12-07T06:19:30;2.70;99.90
32660;DHT22;19064;47.912;12.308;2022-12-07T06:21:58;2.70;99.90
32660;DHT22;19064;47.912;12.308;2022-12-07T06:24:25;2.60;99.90
32660;DHT22;19064;47.912;12.308;2022-12-07T06:26:53;2.60;99.90
32660;DHT22;19064;47.912;12.308;2022-12-07T06:29:20;2.60;99.90
32660;DHT22;19064;47.912;12.308;2022-12-07T06:31:48;2.60;99.90
32660;DHT22;19064;47.912;12.308;2022-12-07T06:34:20;2.50;99.90
32660;DHT22;19064;47.912;12.308;2022-12-07T06:36:49;2.50;99.90
32660;DHT22;19064;47.912;12.308;2022-12-07T06:39:22;2.50;99.90
32660;DHT22;19064;47.912;12.308;2022-12-07T06:41:50;2.50;99.90
32660;DHT22;19064;47.912;12.308;2022-12-07T06:44:18;2.50;99.90
32660;DHT22;19064;47.912;12.308;2022-12-07T06:46:46;2.50;99.90
32660;DHT22;19064;47.912;12.308;2022-12-07T06:49:13;2.60;99.90
32660;DHT22;19064;47.912;12.308;2022-12-07T06:51:42;2.60;99.90
32660;DHT22;19064;47.912;12.308;2022-12-07T06:54:12;2.50;99.90
32660;DHT22;19064;47.912;12.308;2022-12-07T06:56:41;2.50;99.90
32660;DHT22;19064;47.912;12.308;2022-12-07T06:59:10;2.50;99.90
32660;DHT22;19064;47.912;12.308;2022-12-07T07:01:38;2.50;99.90
32660;DHT22;19064;47.912;12.308;2022-12-07T07:04:05;2.50;99.90
32660;DHT22;19064;47.912;12.308;2022-12-07T07:06:33;2.40;99.90
32660;DHT22;19064;47.912;12.308;2022-12-07T07:09:02;2.40;99.90
32660;DHT22;19064;47.912;12.308;2022-12-07T07:11:30;2.30;99.90
32660;DHT22;19064;47.912;12.308;2022-12-07T07:13:58;2.30;99.90
32660;DHT22;19064;47.912;12.308;2022-12-07T07:16:29;2.30;99.90
32660;DHT22;19064;47.912;12.308;2022-12-07T07:18:56;2.20;99.90
32660;DHT22;19064;47.912;12.308;2022-12-07T07:21:24;2.20;99.90
32660;DHT22;19064;47.912;12.308;2022-12-07T07:23:52;2.10;99.90
32660;DHT22;19064;47.912;12.308;2022-12-07T07:26:22;2.10;99.90
32660;DHT22;19064;47.912;12.308;2022-12-07T07:28:50;2.00;99.90
32660;DHT22;19064;47.912;12.308;2022-12-07T07:31:18;1.90;99.90
32660;DHT22;19064;47.912;12.308;2022-12-07T07:33:45;1.90;99.90
32660;DHT22;19064;47.912;12.308;2022-12-07T07:36:13;1.90;99.90
32660;DHT22;19064;47.912;12.308;2022-12-07T07:38:40;2.00;99.90
32660;DHT22;19064;47.912;12.308;2022-12-07T07:41:08;2.00;99.90
32660;DHT22;19064;47.912;12.308;2022-12-07T07:43:37;2.10;99.90
32660;DHT22;19064;47.912;12.308;2022-12-07T07:46:05;2.10;99.90
32660;DHT22;19064;47.912;12.308;2022-12-07T07:48:33;2.20;99.90
32660;DHT22;19064;47.912;12.308;2022-12-07T07:51:00;2.30;99.90
32660;DHT22;19064;47.912;12.308;2022-12-07T07:53:28;2.40;99.90
32660;DHT22;19064;47.912;12.308;2022-12-07T07:55:56;2.50;99.90
32660;DHT22;19064;47.912;12.308;2022-12-07T07:58:24;2.60;99.90
32660;DHT22;19064;47.912;12.308;2022-12-07T08:00:52;2.50;99.90
32660;DHT22;19064;47.912;12.308;2022-12-07T08:03:20;2.50;99.90
32660;DHT22;19064;47.912;12.308;2022-12-07T08:05:48;2.50;99.90
32660;DHT22;19064;47.912;12.308;2022-12-07T08:08:16;2.60;99.90
32660;DHT22;19064;47.912;12.308;2022-12-07T08:10:44;2.40;99.90
32660;DHT22;19064;47.912;12.308;2022-12-07T08:13:15;2.40;99.90
32660;DHT22;19064;47.912;12.308;2022-12-07T08:15:43;2.50;99.90
32660;DHT22;19064;47.912;12.308;2022-12-07T08:18:13;2.60;99.90
32660;DHT22;19064;47.912;12.308;2022-12-07T08:20:42;2.60;99.90
32660;DHT22;19064;47.912;12.308;2022-12-07T08:23:10;2.50;99.90
32660;DHT22;19064;47.912;12.308;2022-12-07T08:25:39;2.60;99.90
32660;DHT22;19064;47.912;12.308;2022-12-07T08:28:07;2.60;99.90
32660;DHT22;19064;47.912;12.308;2022-12-07T08:30:34;2.60;99.90
32660;DHT22;19064;47.912;12.308;2022-12-07T08:33:02;2.50;99.90
32660;DHT22;19064;47.912;12.308;2022-12-07T08:35:32;2.40;99.90
32660;DHT22;19064;47.912;12.308;2022-12-07T08:38:00;2.50;99.90
32660;DHT22;19064;47.912;12.308;2022-12-07T08:40:27;2.40;99.90
32660;DHT22;19064;47.912;12.308;2022-12-07T08:42:56;2.40;99.90
32660;DHT22;19064;47.912;12.308;2022-12-07T08:45:24;2.60;99.90
32660;DHT22;19064;47.912;12.308;2022-12-07T08:47:55;2.60;99.90
32660;DHT22;19064;47.912;12.308;2022-12-07T08:50:24;2.50;99.90
32660;DHT22;19064;47.912;12.308;2022-12-07T08:52:55;2.50;99.90
32660;DHT22;19064;47.912;12.308;2022-12-07T08:55:23;2.50;99.90
32660;DHT22;19064;47.912;12.308;2022-12-07T08:57:52;2.60;99.90
32660;DHT22;19064;47.912;12.308;2022-12-07T09:00:19;2.60;99.90
32660;DHT22;19064;47.912;12.308;2022-12-07T09:02:47;2.60;99.90
32660;DHT22;19064;47.912;12.308;2022-12-07T09:05:15;2.60;99.90
32660;DHT22;19064;47.912;12.308;2022-12-07T09:07:46;2.60;99.90
32660;DHT22;19064;47.912;12.308;2022-12-07T09:10:18;2.70;99.90
32660;DHT22;19064;47.912;12.308;2022-12-07T09:12:46;2.70;99.90
32660;DHT22;19064;47.912;12.308;2022-12-07T09:15:14;2.60;99.90
32660;DHT22;19064;47.912;12.308;2022-12-07T09:17:42;2.70;99.90
32660;DHT22;19064;47.912;12.308;2022-12-07T09:20:09;2.60;99.90
32660;DHT22;19064;47.912;12.308;2022-12-07T09:22:37;2.60;99.90
32660;DHT22;19064;47.912;12.308;2022-12-07T09:25:05;2.60;99.90
32660;DHT22;19064;47.912;12.308;2022-12-07T09:27:35;2.40;99.90
32660;DHT22;19064;47.912;12.308;2022-12-07T09:30:02;2.50;99.90
32660;DHT22;19064;47.912;12.308;2022-12-07T09:32:30;2.50;99.90
32660;DHT22;19064;47.912;12.308;2022-12-07T09:34:58;2.50;99.90
32660;DHT22;19064;47.912;12.308;2022-12-07T09:37:26;2.40;99.90
32660;DHT22;19064;47.912;12.308;2022-12-07T09:39:54;2.60;99.90
32660;DHT22;19064;47.912;12.308;2022-12-07T09:42:28;2.50;99.90
32660;DHT22;19064;47.912;12.308;2022-12-07T09:44:58;2.60;99.90
32660;DHT22;19064;47.912;12.308;2022-12-07T09:47:27;2.60;99.90
32660;DHT22;19064;47.912;12.308;2022-12-07T09:50:00;2.50;99.90
32660;DHT22;19064;47.912;12.308;2022-12-07T09:52:28;2.60;99.90
32660;DHT22;19064;47.912;12.308;2022-12-07T09:54:57;2.60;99.90
32660;DHT22;19064;47.912;12.308;2022-12-07T09:57:28;2.70;99.90
32660;DHT22;19064;47.912;12.308;2022-12-07T10:00:02;2.70;99.90
32660;DHT22;19064;47.912;12.308;2022-12-07T10:02:36;2.80;99.90
32660;DHT22;19064;47.912;12.308;2022-12-07T10:05:06;2.80;99.90
32660;DHT22;19064;47.912;12.308;2022-12-07T10:07:34;2.80;99.90
32660;DHT22;19064;47.912;12.308;2022-12-07T10:10:04;2.80;99.90
32660;DHT22;19064;47.912;12.308;2022-12-07T10:12:53;2.90;99.90
32660;DHT22;19064;47.912;12.308;2022-12-07T10:15:23;2.80;99.90
32660;DHT22;19064;47.912;12.308;2022-12-07T10:17:52;2.80;99.90
32660;DHT22;19064;47.912;12.308;2022-12-07T10:20:24;2.90;99.90
32660;DHT22;19064;47.912;12.308;2022-12-07T10:23:01;2.90;99.90
32660;DHT22;19064;47.912;12.308;2022-12-07T10:25:31;2.90;99.90
32660;DHT22;19064;47.912;12.308;2022-12-07T10:30:52;2.90;99.90
32660;DHT22;19064;47.912;12.308;2022-12-07T10:33:32;3.00;99.90
32660;DHT22;19064;47.912;12.308;2022-12-07T10:35:59;3.00;99.90
32660;DHT22;19064;47.912;12.308;2022-12-07T10:38:27;3.00;99.90
32660;DHT22;19064;47.912;12.308;2022-12-07T10:41:05;3.00;99.90
32660;DHT22;19064;47.912;12.308;2022-12-07T10:43:32;2.90;99.90
32660;DHT22;19064;47.912;12.308;2022-12-07T10:46:22;3.10;99.90
32660;DHT22;19064;47.912;12.308;2022-12-07T10:48:59;3.00;99.90
32660;DHT22;19064;47.912;12.308;2022-12-07T10:51:36;3.00;99.90
32660;DHT22;19064;47.912;12.308;2022-12-07T10:54:10;3.00;99.90
32660;DHT22;19064;47.912;12.308;2022-12-07T10:56:59;3.00;99.90
32660;DHT22;19064;47.912;12.308;2022-12-07T11:00:00;2.90;99.90
32660;DHT22;19064;47.912;12.308;2022-12-07T11:02:54;3.00;99.90
32660;DHT22;19064;47.912;12.308;2022-12-07T11:05:24;3.10;99.90
32660;DHT22;19064;47.912;12.308;2022-12-07T11:08:13;3.10;99.90
32660;DHT22;19064;47.912;12.308;2022-12-07T11:10:50;3.00;99.90
32660;DHT22;19064;47.912;12.308;2022-12-07T11:13:35;3.20;99.90
32660;DHT22;19064;47.912;12.308;2022-12-07T11:16:19;3.10;99.90
32660;DHT22;19064;47.912;12.308;2022-12-07T11:19:03;3.10;99.90
32660;DHT22;19064;47.912;12.308;2022-12-07T11:21:41;3.20;99.90
32660;DHT22;19064;47.912;12.308;2022-12-07T11:24:16;3.20;99.90
32660;DHT22;19064;47.912;12.308;2022-12-07T11:26:56;3.30;99.90
32660;DHT22;19064;47.912;12.308;2022-12-07T11:29:47;3.30;99.90
32660;DHT22;19064;47.912;12.308;2022-12-07T11:32:23;3.40;99.90
32660;DHT22;19064;47.912;12.308;2022-12-07T11:35:03;3.30;99.90
32660;DHT22;19064;47.912;12.308;2022-12-07T11:37:35;3.30;99.90
32660;DHT22;19064;47.912;12.308;2022-12-07T11:40:08;3.40;99.90
32660;DHT22;19064;47.912;12.308;2022-12-07T11:42:44;3.40;99.90
32660;DHT22;19064;47.912;12.308;2022-12-07T11:45:15;3.40;99.90
32660;DHT22;19064;47.912;12.308;2022-12-07T11:47:47;3.50;99.90
32660;DHT22;19064;47.912;12.308;2022-12-07T11:50:27;3.50;99.90
32660;DHT22;19064;47.912;12.308;2022-12-07T11:53:02;3.40;99.90
32660;DHT22;19064;47.912;12.308;2022-12-07T11:55:41;3.40;99.90
32660;DHT22;19064;47.912;12.308;2022-12-07T11:58:19;3.50;99.90
32660;DHT22;19064;47.912;12.308;2022-12-07T12:00:49;3.50;99.90
32660;DHT22;19064;47.912;12.308;2022-12-07T12:03:23;3.60;99.90
32660;DHT22;19064;47.912;12.308;2022-12-07T12:05:56;3.60;99.90
32660;DHT22;19064;47.912;12.308;2022-12-07T12:08:27;3.60;99.90
32660;DHT22;19064;47.912;12.308;2022-12-07T12:11:00;3.60;99.90
32660;DHT22;19064;47.912;12.308;2022-12-07T12:13:48;3.70;99.90
32660;DHT22;19064;47.912;12.308;2022-12-07T12:16:37;3.70;99.90
32660;DHT22;19064;47.912;12.308;2022-12-07T12:19:18;3.70;99.90
32660;DHT22;19064;47.912;12.308;2022-12-07T12:21:48;3.60;99.90
32660;DHT22;19064;47.912;12.308;2022-12-07T12:24:18;3.60;99.90
32660;DHT22;19064;47.912;12.308;2022-12-07T12:26:50;3.70;99.90
32660;DHT22;19064;47.912;12.308;2022-12-07T12:29:22;3.80;99.90
32660;DHT22;19064;47.912;12.308;2022-12-07T12:32:05;3.80;99.90
32660;DHT22;19064;47.912;12.308;2022-12-07T12:34:40;3.80;99.90
32660;DHT22;19064;47.912;12.308;2022-12-07T12:37:45;3.90;99.90
32660;DHT22;19064;47.912;12.308;2022-12-07T12:43:45;3.80;99.90
32660;DHT22;19064;47.912;12.308;2022-12-07T12:49:37;3.80;99.90
32660;DHT22;19064;47.912;12.308;2022-12-07T12:58:33;3.90;99.90
32660;DHT22;19064;47.912;12.308;2022-12-07T13:01:35;3.90;99.90
32660;DHT22;19064;47.912;12.308;2022-12-07T13:06:58;3.90;99.90
32660;DHT22;19064;47.912;12.308;2022-12-07T13:09:27;4.00;99.90
32660;DHT22;19064;47.912;12.308;2022-12-07T13:12:12;4.00;99.90
32660;DHT22;19064;47.912;12.308;2022-12-07T13:14:52;4.00;99.90
32660;DHT22;19064;47.912;12.308;2022-12-07T13:17:55;4.00;99.90
32660;DHT22;19064;47.912;12.308;2022-12-07T13:20:48;4.00;99.90
32660;DHT22;19064;47.912;12.308;2022-12-07T13:23:21;3.90;99.90
32660;DHT22;19064;47.912;12.308;2022-12-07T13:25:54;3.90;99.90
32660;DHT22;19064;47.912;12.308;2022-12-07T13:28:26;3.80;99.90
32660;DHT22;19064;47.912;12.308;2022-12-07T13:31:02;3.90;99.90
32660;DHT22;19064;47.912;12.308;2022-12-07T13:33:30;3.90;99.90
32660;DHT22;19064;47.912;12.308;2022-12-07T13:36:00;3.80;99.90
32660;DHT22;19064;47.912;12.308;2022-12-07T13:38:32;3.80;99.90
32660;DHT22;19064;47.912;12.308;2022-12-07T13:41:05;3.80;99.90
32660;DHT22;19064;47.912;12.308;2022-12-07T13:43:44;3.80;99.90
32660;DHT22;19064;47.912;12.308;2022-12-07T13:46:12;3.80;99.90
32660;DHT22;19064;47.912;12.308;2022-12-07T13:48:45;3.70;99.90
32660;DHT22;19064;47.912;12.308;2022-12-07T13:51:22;3.80;99.90
32660;DHT22;19064;47.912;12.308;2022-12-07T13:53:51;3.80;99.90
32660;DHT22;19064;47.912;12.308;2022-12-07T13:56:21;3.70;99.90
32660;DHT22;19064;47.912;12.308;2022-12-07T13:58:50;3.70;99.90
32660;DHT22;19064;47.912;12.308;2022-12-07T14:01:16;3.60;99.90
32660;DHT22;19064;47.912;12.308;2022-12-07T14:03:44;3.70;99.90
32660;DHT22;19064;47.912;12.308;2022-12-07T14:06:22;3.70;99.90
32660;DHT22;19064;47.912;12.308;2022-12-07T14:09:14;3.70;99.90
32660;DHT22;19064;47.912;12.308;2022-12-07T14:11:43;3.70;99.90
32660;DHT22;19064;47.912;12.308;2022-12-07T14:14:15;3.60;99.90
32660;DHT22;19064;47.912;12.308;2022-12-07T14:16:43;3.60;99.90
32660;DHT22;19064;47.912;12.308;2022-12-07T14:22:25;3.60;99.90
32660;DHT22;19064;47.912;12.308;2022-12-07T14:24:59;3.60;99.90
32660;DHT22;19064;47.912;12.308;2022-12-07T14:27:31;3.50;99.90
32660;DHT22;19064;47.912;12.308;2022-12-07T14:30:01;3.50;99.90
32660;DHT22;19064;47.912;12.308;2022-12-07T14:32:30;3.40;99.90
32660;DHT22;19064;47.912;12.308;2022-12-07T14:34:59;3.30;99.90
32660;DHT22;19064;47.912;12.308;2022-12-07T14:37:26;3.30;99.90
32660;DHT22;19064;47.912;12.308;2022-12-07T14:39:53;3.30;99.90
32660;DHT22;19064;47.912;12.308;2022-12-07T14:42:22;3.40;99.90
32660;DHT22;19064;47.912;12.308;2022-12-07T14:44:50;3.40;99.90
32660;DHT22;19064;47.912;12.308;2022-12-07T14:47:18;3.40;99.90
32660;DHT22;19064;47.912;12.308;2022-12-07T14:49:45;3.40;99.90
32660;DHT22;19064;47.912;12.308;2022-12-07T14:52:14;3.30;99.90
32660;DHT22;19064;47.912;12.308;2022-12-07T14:54:42;3.30;99.90
32660;DHT22;19064;47.912;12.308;2022-12-07T14:57:09;3.30;99.90
32660;DHT22;19064;47.912;12.308;2022-12-07T14:59:36;3.30;99.90
32660;DHT22;19064;47.912;12.308;2022-12-07T15:02:03;3.30;99.90
32660;DHT22;19064;47.912;12.308;2022-12-07T15:04:32;3.30;99.90
32660;DHT22;19064;47.912;12.308;2022-12-07T15:07:00;3.20;99.90
32660;DHT22;19064;47.912;12.308;2022-12-07T15:09:27;3.10;99.90
32660;DHT22;19064;47.912;12.308;2022-12-07T15:11:54;3.10;99.90
32660;DHT22;19064;47.912;12.308;2022-12-07T15:14:20;3.00;99.90
32660;DHT22;19064;47.912;12.308;2022-12-07T15:16:47;3.10;99.90
32660;DHT22;19064;47.912;12.308;2022-12-07T15:19:16;3.10;99.90
32660;DHT22;19064;47.912;12.308;2022-12-07T15:21:44;3.10;99.90
32660;DHT22;19064;47.912;12.308;2022-12-07T15:24:12;3.10;99.90
32660;DHT22;19064;47.912;12.308;2022-12-07T15:26:39;3.00;99.90
32660;DHT22;19064;47.912;12.308;2022-12-07T15:29:07;3.00;99.90
32660;DHT22;19064;47.912;12.308;2022-12-07T15:31:34;3.10;99.90
32660;DHT22;19064;47.912;12.308;2022-12-07T15:34:01;3.00;99.90
32660;DHT22;19064;47.912;12.308;2022-12-07T15:36:30;2.90;99.90
32660;DHT22;19064;47.912;12.308;2022-12-07T15:38:58;2.80;99.90
32660;DHT22;19064;47.912;12.308;2022-12-07T15:41:26;2.80;99.90
32660;DHT22;19064;47.912;12.308;2022-12-07T15:43:52;2.70;99.90
32660;DHT22;19064;47.912;12.308;2022-12-07T15:46:38;2.60;99.90
32660;DHT22;19064;47.912;12.308;2022-12-07T15:49:10;2.50;99.90
32660;DHT22;19064;47.912;12.308;2022-12-07T15:51:37;2.40;99.90
32660;DHT22;19064;47.912;12.308;2022-12-07T15:54:05;2.40;99.90
32660;DHT22;19064;47.912;12.308;2022-12-07T15:56:32;2.40;99.90
32660;DHT22;19064;47.912;12.308;2022-12-07T15:58:59;2.40;99.90
32660;DHT22;19064;47.912;12.308;2022-12-07T16:01:25;2.40;99.90
32660;DHT22;19064;47.912;12.308;2022-12-07T16:03:54;2.40;99.90
32660;DHT22;19064;47.912;12.308;2022-12-07T16:06:22;2.30;99.90
32660;DHT22;19064;47.912;12.308;2022-12-07T16:08:49;2.30;99.90
32660;DHT22;19064;47.912;12.308;2022-12-07T16:11:19;2.30;99.90
32660;DHT22;19064;47.912;12.308;2022-12-07T16:13:47;2.30;99.90
32660;DHT22;19064;47.912;12.308;2022-12-07T16:16:16;2.30;99.90
32660;DHT22;19064;47.912;12.308;2022-12-07T16:18:46;2.60;99.90